createdAt,value
2023-05-12T00:02:40.233Z,100791.59
2023-05-12T00:07:33.201Z,100796.88
2023-05-12T00:12:28.141Z,100796.53
2023-05-12T00:17:22.806Z,100812.72
2023-05-12T00:22:17.938Z,100793.34
2023-05-12T00:27:10.439Z,100732.19
2023-05-12T00:32:03.257Z,100733.00
2023-05-12T00:36:56.695Z,100800.69
2023-05-12T00:41:59.550Z,100718.19
2023-05-12T00:46:53.352Z,100802.53
2023-05-12T00:51:47.543Z,100678.53
2023-05-12T00:56:39.601Z,100790.13
2023-05-12T01:01:34.500Z,100805.03
2023-05-12T01:06:44.838Z,100803.56
2023-05-12T01:11:36.927Z,100758.34
2023-05-12T01:16:39.788Z,100666.94
2023-05-12T01:21:34.961Z,100793.13
2023-05-12T01:26:30.949Z,100801.59
2023-05-12T01:31:24.561Z,100782.09
2023-05-12T01:36:17.394Z,100752.38
2023-05-12T01:41:10.290Z,100687.81
2023-05-12T01:46:05.331Z,100660.03
2023-05-12T01:51:02.025Z,100722.66
2023-05-12T01:55:53.965Z,100759.94
2023-05-12T02:00:46.974Z,100658.44
2023-05-12T02:05:43.618Z,100677.59
2023-05-12T02:10:36.221Z,100705.69
2023-05-12T02:15:28.389Z,100736.78
2023-05-12T02:20:20.766Z,100746.19
2023-05-12T02:25:13.714Z,100689.88
2023-05-12T02:30:07.452Z,100725.09
2023-05-12T02:34:59.776Z,100731.84
2023-05-12T02:39:53.063Z,100622.66
2023-05-12T02:44:45.278Z,100702.59
2023-05-12T02:49:37.583Z,100768.34
2023-05-12T02:54:30.686Z,100646.88
2023-05-12T02:59:22.900Z,100751.69
2023-05-12T03:04:15.173Z,100740.69
2023-05-12T03:09:09.821Z,100747.78
2023-05-12T03:14:05.335Z,100693.06
2023-05-12T03:18:59.502Z,100704.88
2023-05-12T03:23:53.463Z,100733.31
2023-05-12T03:28:45.480Z,100749.28
2023-05-12T03:33:38.590Z,100652.53
2023-05-12T03:38:31.244Z,100484.28
2023-05-12T03:43:24.527Z,100759.22
2023-05-12T03:48:20.058Z,100764.19
2023-05-12T03:53:12.488Z,100701.53
2023-05-12T03:58:04.597Z,100660.44
2023-05-12T04:02:59.670Z,100671.69
2023-05-12T04:07:56.170Z,100544.84
2023-05-12T04:12:49.481Z,100761.41
2023-05-12T04:17:42.039Z,100612.63
2023-05-12T04:22:34.176Z,100757.47
2023-05-12T04:27:35.370Z,100724.03
2023-05-12T04:32:28.624Z,100788.06
2023-05-12T04:37:22.320Z,100753.47
2023-05-12T04:42:15.490Z,100706.97
2023-05-12T04:47:10.440Z,100622.16
2023-05-12T04:52:02.550Z,100652.25
2023-05-12T04:56:57.167Z,100701.19
2023-05-12T05:01:55.333Z,100753.16
2023-05-12T05:06:52.421Z,100714.97
2023-05-12T05:11:47.664Z,100648.31
2023-05-12T05:16:40.136Z,100739.28
2023-05-12T05:21:33.584Z,100750.06
2023-05-12T05:26:30.466Z,100745.50
2023-05-12T05:31:23.192Z,100736.31
2023-05-12T05:36:17.085Z,100747.53
2023-05-12T05:41:09.330Z,100795.72
2023-05-12T05:46:01.651Z,100844.78
2023-05-12T05:50:56.878Z,100790.34
2023-05-12T05:55:51.763Z,100773.16
2023-05-12T06:00:44.658Z,100516.25
2023-05-12T06:05:38.743Z,100829.28
2023-05-12T06:10:31.815Z,100793.91
2023-05-12T06:15:24.941Z,100702.59
2023-05-12T06:20:18.842Z,100753.50
2023-05-12T06:25:11.151Z,100879.88
2023-05-12T06:30:04.913Z,100823.50
2023-05-12T06:34:57.175Z,100903.94
2023-05-12T06:39:51.635Z,100870.47
2023-05-12T06:44:45.837Z,100918.53
2023-05-12T06:49:39.171Z,100922.47
2023-05-12T06:54:33.245Z,100920.00
2023-05-12T06:59:26.604Z,100931.06
2023-05-12T07:04:18.712Z,100893.41
2023-05-12T07:09:12.016Z,100937.13
2023-05-12T07:14:04.014Z,100933.81
2023-05-12T07:18:56.983Z,100894.59
2023-05-12T07:23:49.718Z,100927.91
2023-05-12T07:28:42.129Z,100913.94
2023-05-12T07:33:36.989Z,100922.13
2023-05-12T07:38:30.744Z,100931.84
2023-05-12T07:43:25.216Z,100942.06
2023-05-12T07:48:18.867Z,100938.28
2023-05-12T07:53:14.405Z,100966.31
2023-05-12T07:58:10.097Z,100778.53
2023-05-12T08:03:02.601Z,100852.16
2023-05-12T08:07:56.403Z,100902.94
2023-05-12T08:12:48.781Z,100868.59
2023-05-12T08:17:42.004Z,100934.50
2023-05-12T08:22:34.784Z,100868.72
2023-05-12T08:27:27.643Z,100954.75
2023-05-12T08:32:22.079Z,100989.06
2023-05-12T08:37:16.960Z,100962.56
2023-05-12T08:42:18.949Z,100992.47
2023-05-12T08:47:12.226Z,100995.94
2023-05-12T08:52:08.068Z,100975.53
2023-05-12T09:01:57.216Z,101008.16
2023-05-12T09:06:49.762Z,100737.97
2023-05-12T09:11:43.872Z,100973.50
2023-05-12T09:16:51.057Z,100939.19
2023-05-12T09:21:43.328Z,100971.22
2023-05-12T09:26:54.106Z,100979.69
2023-05-12T09:31:54.077Z,100982.69
2023-05-12T09:36:59.519Z,100881.91
2023-05-12T09:41:53.599Z,100984.91
2023-05-12T09:46:48.140Z,100980.53
2023-05-12T09:51:41.705Z,100976.50
2023-05-12T09:56:38.871Z,100907.03
2023-05-12T10:01:31.554Z,100989.91
2023-05-12T10:06:39.421Z,100855.88
2023-05-12T10:11:32.031Z,100999.72
2023-05-12T10:16:25.097Z,101012.91
2023-05-12T10:21:17.154Z,100945.97
2023-05-12T10:26:10.722Z,100944.31
2023-05-12T10:31:05.572Z,101015.97
2023-05-12T10:35:59.143Z,101018.81
2023-05-12T10:41:01.574Z,100988.34
2023-05-12T10:46:30.859Z,100847.47
2023-05-12T10:51:29.164Z,101017.66
2023-05-12T10:56:25.187Z,100911.03
2023-05-12T11:01:25.422Z,101006.84
2023-05-12T11:06:19.965Z,100996.69
2023-05-12T11:11:12.841Z,100888.69
2023-05-12T11:16:06.594Z,100993.13
2023-05-12T11:20:59.286Z,100916.81
2023-05-12T11:25:51.566Z,100950.41
2023-05-12T11:30:55.251Z,101007.97
2023-05-12T11:35:48.392Z,101020.47
2023-05-12T11:40:41.644Z,101034.47
2023-05-12T11:45:35.386Z,101024.28
2023-05-12T11:50:28.130Z,101003.88
2023-05-12T11:55:23.640Z,100958.31
2023-05-12T12:00:17.664Z,100962.16
2023-05-12T12:05:19.657Z,100953.50
2023-05-12T12:10:19.048Z,101009.59
2023-05-12T12:15:13.878Z,101007.63
2023-05-12T12:20:10.229Z,101012.91
2023-05-12T12:25:04.950Z,100839.63
2023-05-12T12:29:58.541Z,100943.75
2023-05-12T12:34:52.185Z,100983.13
2023-05-12T12:39:44.350Z,100934.25
2023-05-12T12:44:37.667Z,101031.88
2023-05-12T12:49:29.750Z,100974.72
2023-05-12T12:54:21.836Z,100995.06
2023-05-12T12:59:13.908Z,100958.31
2023-05-12T13:04:06.972Z,101023.38
2023-05-12T13:08:58.947Z,100874.69
2023-05-12T13:13:52.692Z,101028.47
2023-05-12T13:18:46.108Z,100883.34
2023-05-12T13:23:39.208Z,101024.81
2023-05-12T13:28:31.195Z,101025.09
2023-05-12T13:33:25.008Z,100819.88
2023-05-12T13:38:17.663Z,101018.06
2023-05-12T13:43:10.207Z,100797.78
2023-05-12T13:48:02.599Z,100950.50
2023-05-12T13:52:56.211Z,100948.00
2023-05-12T13:57:48.148Z,100997.59
2023-05-12T14:02:41.046Z,101016.13
2023-05-12T14:07:33.253Z,100975.28
2023-05-12T14:12:28.434Z,101030.78
2023-05-12T14:17:25.545Z,101036.44
2023-05-12T14:23:00.007Z,100982.41
2023-05-12T14:27:52.002Z,101031.03
2023-05-12T14:32:46.551Z,100891.03
2023-05-12T14:37:38.872Z,100979.69
2023-05-12T14:42:33.332Z,101043.19
2023-05-12T14:47:25.498Z,101045.25
2023-05-12T14:52:18.753Z,100969.75
2023-05-12T14:57:18.991Z,100927.38
2023-05-12T15:02:11.731Z,101001.72
2023-05-12T15:07:05.427Z,101050.47
2023-05-12T15:11:58.209Z,101057.28
2023-05-12T15:16:50.238Z,101060.25
2023-05-12T15:21:42.770Z,101055.63
2023-05-12T15:26:39.022Z,101034.13
2023-05-12T15:31:33.148Z,101073.06
2023-05-12T15:36:25.045Z,101047.56
2023-05-12T15:41:17.219Z,101070.22
2023-05-12T15:46:11.973Z,100961.41
2023-05-12T15:51:06.920Z,101074.22
2023-05-12T15:56:03.255Z,101064.19
2023-05-12T16:00:58.396Z,101056.66
2023-05-12T16:05:50.840Z,100929.88
2023-05-12T16:10:43.884Z,100953.09
2023-05-12T16:15:36.145Z,101058.47
2023-05-12T16:20:29.264Z,101051.91
2023-05-12T16:25:21.730Z,101002.59
2023-05-12T16:30:14.813Z,100997.59
2023-05-12T16:35:08.862Z,100954.88
2023-05-12T16:40:01.700Z,101022.88
2023-05-12T16:44:55.087Z,100885.63
2023-05-12T16:49:48.753Z,100968.25
2023-05-12T16:54:43.580Z,101057.38
2023-05-12T16:59:40.186Z,101083.84
2023-05-12T17:04:34.603Z,100863.59
2023-05-12T17:09:27.484Z,100915.66
2023-05-12T17:14:19.914Z,101084.22
2023-05-12T17:19:22.452Z,101093.75
2023-05-12T17:24:16.754Z,101057.09
2023-05-12T17:29:11.623Z,101062.44
2023-05-12T17:34:06.405Z,101032.00
2023-05-12T17:38:58.693Z,100901.84
2023-05-12T17:43:50.840Z,101128.22
2023-05-12T17:48:43.642Z,101069.31
2023-05-12T17:53:36.029Z,101109.69
2023-05-12T17:58:29.310Z,101121.41
2023-05-12T18:03:24.514Z,101098.44
2023-05-12T18:08:19.878Z,101108.16
2023-05-12T18:13:16.726Z,101057.69
2023-05-12T18:18:10.928Z,101109.72
2023-05-12T18:23:03.209Z,101140.28
2023-05-12T18:27:55.287Z,101041.16
2023-05-12T18:32:48.745Z,101031.38
2023-05-12T18:37:40.884Z,101133.28
2023-05-12T18:42:34.761Z,101094.81
2023-05-12T18:47:26.767Z,101134.03
2023-05-12T18:52:21.579Z,101087.22
2023-05-12T18:57:14.252Z,101076.16
2023-05-12T19:02:08.747Z,101051.06
2023-05-12T19:07:00.936Z,101082.66
2023-05-12T19:11:53.536Z,101161.84
2023-05-12T19:16:46.915Z,101214.00
2023-05-12T19:21:39.395Z,101201.41
2023-05-12T19:26:32.285Z,101210.03
2023-05-12T19:31:24.834Z,101228.47
2023-05-12T19:36:18.565Z,101248.00
2023-05-12T20:11:22.433Z,101226.44
2023-05-12T20:16:15.278Z,101224.72
2023-05-12T20:21:09.428Z,101153.66
2023-05-12T20:26:02.244Z,101246.69
2023-05-12T20:30:54.541Z,101066.41
2023-05-12T20:35:48.527Z,101214.72
2023-05-12T20:40:41.864Z,101257.53
2023-05-12T20:45:34.407Z,101164.88
2023-05-12T20:50:31.193Z,101209.78
2023-05-12T20:55:23.459Z,101151.47
2023-05-12T21:00:18.041Z,101226.19
2023-05-12T21:05:11.596Z,100840.53
2023-05-12T21:10:07.582Z,101226.94
2023-05-12T21:15:00.201Z,101266.00
2023-05-12T21:19:54.238Z,101266.22
2023-05-12T21:24:46.748Z,101238.63
2023-05-12T21:29:39.620Z,101289.34
2023-05-12T21:34:33.925Z,101231.72
2023-05-12T21:39:27.087Z,101264.34
2023-05-12T21:44:19.870Z,101283.97
2023-05-12T21:49:14.528Z,101185.88
2023-05-12T21:54:12.676Z,101278.53
2023-05-12T22:04:49.274Z,101259.03
2023-05-12T22:09:44.896Z,101269.06
2023-05-12T22:14:39.378Z,101266.94
2023-05-12T22:33:15.063Z,101291.75
2023-05-12T22:38:07.970Z,101232.44
2023-05-12T22:43:00.204Z,101264.78
2023-05-12T22:47:54.481Z,101269.56
2023-05-12T22:52:48.255Z,101302.88
2023-05-12T22:57:45.366Z,101297.06
2023-05-12T23:02:54.540Z,101031.56
2023-05-12T23:14:02.671Z,101278.16
2023-05-12T23:18:55.680Z,101256.09
2023-05-12T23:23:50.712Z,101235.09
2023-05-12T23:28:43.649Z,101288.50
2023-05-12T23:33:36.915Z,101147.22
2023-05-12T23:38:37.861Z,101279.44
2023-05-12T23:43:30.843Z,101238.16
2023-05-12T23:48:23.193Z,101257.88
2023-05-12T23:53:17.792Z,101287.44
2023-05-12T23:58:13.783Z,101221.09
